SSEC Globe Logo

Space Science and Engineering Center

Regional Terminal Forecasts

TAF AMD KMSN 191516Z 1915/2012 16006KT P6SM BKN010 FM191700
     VRB03KT P6SM SCT010 SCT040 FM200700 12010KT P6SM
     BKN200=
KMKE 191402Z 1914/2018 08005KT P6SM FEW008 SCT120 FM191800
     10005KT P6SM SCT120 FM200100 VRB04KT P6SM FEW250
     FM200700 13012KT P6SM SCT250=
KGRB 191132Z 1912/2012 27003KT 6SM BR SCT020 TEMPO 1912/1913
     3SM BR FM191400 VRB03KT P6SM SCT010 FM191600 14006KT
     P6SM SCT030 FM200000 15003KT P6SM BKN250 TEMPO
     2008/2012 2SM BR=
KAUW 191132Z 1912/2012 VRB03KT 5SM BR SKC TEMPO 1912/1913
     2SM BR BKN003 FM191400 VRB03KT P6SM SCT012 FM191600
     18005KT P6SM SCT035 FM200000 14004KT P6SM SCT250
     FM200800 10003KT P6SM BKN250 TEMPO 2009/2012 1 1/2SM BR
     BKN012=
KEAU 191120Z 1912/2012 00000KT 3SM BR SCT002 TEMPO 1912/1913
     1SM BR OVC005 FM191300 VRB03KT 6SM BR SCT002 TEMPO
     1913/1914 4SM BR OVC005 FM191400 16005KT P6SM FEW015
     FM191800 17007KT P6SM BKN250 FM200000 VRB03KT P6SM
     BKN150 FM201000 02004KT P6SM VCSH BKN080 OVC250=
TAF AMD KLSE 191305Z 1913/2012 11005KT 4SM BR BKN004
     FM191400 11005KT P6SM BKN009 FM191430 16006KT P6SM
     FEW015 SCT250 FM200100 12003KT P6SM BKN150=
KDBQ 191128Z 1912/2012 VRB03KT 4SM BR SCT040 TEMPO 1912/1913
     2SM BR FM191300 VRB03KT P6SM SCT070 FM200900 10007KT
     P6SM OVC090 FM201100 09008KT P6SM OVC050=
TAF TAF AMD KRFD 191509Z 1915/2012 VRB03KT 5SM BR BKN006
     FM191700 09005KT P6SM SCT030 SCT120 FM200200 12005KT
     P6SM BKN250=
KORD 191509Z 1915/2018 10005KT P6SM FEW020 FM191800 08008KT
     P6SM FEW018 FM200200 12005KT P6SM BKN250 FM201500
     12012KT P6SM VCSH SCT060 OVC120=